Aviation Digital Data Service (ADDS)

Output produced by TAFs form (1805 UTC 29 June 2016)
found at http://aviationweather.gov/adds/tafs/
 
KCNY 291731Z 2918/3018 18005KT P6SM BKN150 BKN250 
     FM291900 20007KT P6SM VCTS SCT120CB BKN200 
     FM300000 23007KT P6SM VCTS SCT120CB BKN250 
     FM300300 33004KT P6SM BKN150 
     FM300500 06005KT P6SM BKN200 
     FM301200 12005KT P6SM SCT200